• Join FlightAware (Why Join?)
  • Login
  • US Flag 
Rudolph Flight #1: Arrived! 
11:00AM EST


 

Airport Tracker/Info


-or-


 

Live Flight TrackerFlight Track Log ✈ UAL3740 ✈ 21-Apr-2013 ✈ KPVD - KIAD

Flight Track Log - Related Links

Times and Time Zones

All times are in EDT time to prevent confusion due to time zone crossing. See the UAL3740 flight status page for this flight to view local times or setup timezone preferences in your user account.

Time Position Orientation Groundspeed Altitude Reporting Facility
EDT Latitude Longitude Course Direction KTS MPH feet Rate Location/Type
10:25AM 41.7331 -71.4219 19° North 148 170 800  Level Boston Center
10:25AM 41.7456 -71.4161 19° North 149 171 1,700 2,640 Climbing Boston Center
10:26AM 41.7853 -71.4267 349° North 180 207 3,700 2,700 Climbing Boston Center
10:27AM 41.8211 -71.4706 318° Northwest 174 200 6,600 3,060 Climbing Boston Center
10:28AM 41.8444 -71.5400 294° West 193 222 9,900 1,740 Climbing Boston Center
10:29AM 41.8786 -71.6258 298° West 235 270 10,100 60 Climbing Boston Center
10:30AM 41.9125 -71.7175 296° West 294 338 10,100 2,040 Level Boston Center
10:31AM 41.9300 -71.8569 280° West 305 351 14,600 3,720 Climbing Boston Center
10:32AM 41.9306 -71.9544 270° West 274 315 17,600 2,280 Climbing Boston Center
10:33AM 41.9350 -72.0467 274° West 261 300 19,200 1,860 Climbing Boston Center
10:34AM 41.9372 -72.1469 272° West 261 300 21,400 1,860 Climbing Boston Center
10:35AM 41.9397 -72.2475 272° West 261 300 23,400 1,860 Climbing Boston Center
10:36AM 41.9419 -72.3703 271° West 272 313 25,500 1,740 Climbing Boston Center
10:37AM 41.9439 -72.4792 271° West 283 326 26,900 1,500 Climbing Boston Center
10:38AM 41.9481 -72.5908 273° West 295 339 28,500 1,020 Climbing Boston Center
10:39AM 41.9519 -72.7053 273° West 300 345 29,000 600 Climbing Boston Center
10:40AM 41.9558 -72.8336 272° West 325 374 29,800 840 Climbing Boston Center
10:41AM 41.9572 -72.9678 271° West 348 400 30,700 960 Climbing Boston Center
10:42AM 41.9419 -73.1017 261° West 366 421 31,800 600 Climbing Boston Center
10:43AM 41.8769 -73.2014 229° Southwest 349 402 32,000 60 Climbing Boston Center
10:44AM 41.7989 -73.2978 223° Southwest 360 414 32,000  Level Boston Center
10:45AM 41.7189 -73.3997 224° Southwest 384 442 32,000  Level Boston Center
10:46AM 41.6369 -73.4983 222° Southwest 394 453 32,000 -960 Level Boston Center
10:49AM 41.4472 -73.7325 223° Southwest 400 460 28,900 -1,260 Descending New York Center
10:50AM 41.3678 -73.8286 222° Southwest 400 460 27,900 -480 Descending New York Center
10:51AM 41.2903 -73.9217 222° Southwest 393 452 28,000  Climbing New York Center
10:52AM 41.2147 -74.0175 224° Southwest 387 445 28,000  Level New York Center
10:53AM 41.1392 -74.1158 224° Southwest 387 445 28,000  Level New York Center
10:54AM 41.0775 -74.2311 235° Southwest 382 440 28,000  Level New York Center
10:55AM 41.0197 -74.3517 238° Southwest 387 445 28,000  Level New York Center
10:56AM 40.9597 -74.4750 237° Southwest 392 451 28,000  Level New York Center
10:57AM 40.9081 -74.5958 241° Southwest 392 451 28,000  Level New York Center
10:58AM 40.8642 -74.7250 246° West 392 451 28,000  Level New York Center
10:59AM 40.8203 -74.8514 245° Southwest 392 451 28,000  Level New York Center
11:00AM 40.7639 -74.9739 239° Southwest 392 451 28,000  Level New York Center
11:01AM 40.7053 -75.0961 238° Southwest 392 451 28,000  Level New York Center
11:02AM 40.6486 -75.2183 239° Southwest 392 451 28,000  Level New York Center
11:03AM 40.5919 -75.3378 238° Southwest 397 457 28,000 -240 Level New York Center
11:04AM 40.5331 -75.4567 237° Southwest 397 457 27,600 -1,200 Descending New York Center
11:05AM 40.4764 -75.5758 238° Southwest 397 457 25,600 -2,040 Descending New York Center
11:06AM 40.4172 -75.6917 236° Southwest 397 457 23,600 -1,980 Descending New York Center
11:07AM 40.3625 -75.8075 238° Southwest 392 451 21,600 -1,800 Descending New York Center
11:08AM 40.3033 -75.9175 235° Southwest 382 440 20,100 -840 Descending New York Center
11:09AM 40.2486 -76.0278 237° Southwest 382 440 20,000 -60 Descending New York Center
11:10AM 40.1956 -76.1433 239° Southwest 382 440 20,000 -720 Level New York Center
11:11AM 40.1450 -76.2425 236° Southwest 377 434 18,600 -1,380 Descending New York Center
11:13AM 40.0167 -76.5167 239° Southwest 360 414 15,600 -1,200 Descending Potomac TRACON
11:14AM 39.9833 -76.6000 242° Southwest 368 423 15,000 -360 Descending Potomac TRACON
11:15AM 39.9167 -76.7167 233° Southwest 380 437 15,000  Level Potomac TRACON
11:16AM 39.8667 -76.8333 241° Southwest 377 434 15,000 -180 Level Potomac TRACON
11:17AM 39.8167 -76.9500 241° Southwest 376 433 14,700 -900 Descending Potomac TRACON
11:18AM 39.7667 -77.0667 241° Southwest 371 427 13,200 -1,680 Descending Potomac TRACON
11:19AM 39.7167 -77.1667 237° Southwest 363 418 11,500 -1,620 Descending Potomac TRACON
11:20AM 39.6500 -77.2833 233° Southwest 359 413 10,000 -900 Descending Potomac TRACON
11:21AM 39.5833 -77.3333 210° Southwest 294 338 9,800 -1,020 Descending Potomac TRACON
11:22AM 39.5167 -77.3500 191° South 275 316 8,100 -1,440 Descending Potomac TRACON
11:23AM 39.4333 -77.3667 189° South 272 313 7,000 -660 Descending Potomac TRACON
11:24AM 39.3667 -77.3667 180° South 278 320 6,800 -960 Descending Potomac TRACON
11:25AM 39.2833 -77.3667 180° South 273 314 5,100 -1,440 Descending Potomac TRACON
11:26AM 39.2000 -77.3667 180° South 263 303 4,000 -600 Descending Potomac TRACON
11:27AM 39.1333 -77.3667 180° South 263 303 4,000  Level Potomac TRACON
11:28AM 39.0667 -77.3667 180° South 260 299 4,000  Level Potomac TRACON
11:29AM 39.0000 -77.3667 180° South 267 307 4,000 -540 Level Potomac TRACON
11:30AM 38.9167 -77.3667 180° South 266 306 3,000 -540 Descending Potomac TRACON
11:31AM 38.8500 -77.3667 180° South 234 269 3,000 -480 Level Potomac TRACON
11:32AM 38.8167 -77.4000 218° Southwest 202 232 2,100 -660 Descending Potomac TRACON
11:33AM 38.8500 -77.4333 322° Northwest 163 188 1,700 -540 Descending Potomac TRACON
11:34AM 38.8833 -77.4333 360° North 128 147 1,100 -600 Descending Potomac TRACON
11:36AM 38.9333 -77.4500 349° North  Level FlightAware Approximate